createdAt,value
2023-04-06T00:02:35.411Z,20.47
2023-04-06T00:08:17.850Z,20.37
2023-04-06T00:13:25.408Z,20.29
2023-04-06T00:19:22.908Z,20.20
2023-04-06T00:25:16.169Z,20.12
2023-04-06T00:29:49.294Z,19.94
2023-04-06T00:40:45.272Z,19.76
2023-04-06T00:46:27.972Z,19.69
2023-04-06T00:51:41.791Z,19.72
2023-04-06T00:56:49.574Z,19.70
2023-04-06T01:01:57.222Z,19.70
2023-04-06T01:07:04.943Z,19.67
2023-04-06T01:12:12.457Z,19.68
2023-04-06T01:17:19.822Z,19.69
2023-04-06T01:22:27.326Z,19.68
2023-04-06T01:27:40.935Z,19.66
2023-04-06T01:32:48.409Z,19.65
2023-04-06T01:37:55.932Z,19.63
2023-04-06T01:43:03.642Z,19.63
2023-04-06T01:48:11.036Z,19.59
2023-04-06T01:53:22.308Z,19.55
2023-04-06T01:58:29.731Z,19.54
2023-04-06T02:03:37.146Z,19.50
2023-04-06T02:08:59.451Z,19.48
2023-04-06T02:14:06.835Z,19.47
2023-04-06T02:19:19.088Z,19.45
2023-04-06T02:24:26.468Z,19.43
2023-04-06T02:29:48.735Z,19.37
2023-04-06T02:34:56.147Z,19.33
2023-04-06T02:40:03.615Z,19.31
2023-04-06T02:45:11.223Z,19.28
2023-04-06T02:50:53.659Z,19.27
2023-04-06T02:56:01.014Z,19.27
2023-04-06T03:01:09.318Z,19.29
2023-04-06T03:06:19.909Z,19.31
2023-04-06T03:11:27.461Z,19.33
2023-04-06T03:16:34.882Z,19.33
2023-04-06T03:21:42.428Z,19.33
2023-04-06T03:26:49.753Z,19.32
2023-04-06T03:31:57.304Z,19.31
2023-04-06T03:37:10.454Z,19.28
2023-04-06T03:42:22.160Z,19.26
2023-04-06T03:47:33.258Z,19.24
2023-04-06T03:53:15.683Z,19.18
2023-04-06T03:58:23.125Z,19.19
2023-04-06T04:03:37.379Z,19.16
2023-04-06T04:08:52.058Z,19.14
2023-04-06T04:14:04.563Z,19.12
2023-04-06T04:19:17.269Z,19.09
2023-04-06T04:24:59.636Z,19.04
2023-04-06T04:30:25.386Z,19.04
2023-04-06T04:36:01.589Z,19.06
2023-04-06T04:41:08.980Z,19.05
2023-04-06T04:46:16.769Z,19.06
2023-04-06T04:51:24.414Z,19.07
2023-04-06T04:56:49.655Z,19.08
2023-04-06T05:01:55.635Z,19.06
2023-04-06T05:07:00.772Z,19.04
2023-04-06T05:12:52.260Z,19.00
2023-04-06T05:17:59.859Z,19.00
2023-04-06T05:23:07.405Z,18.97
2023-04-06T05:28:22.792Z,18.95
2023-04-06T05:33:30.256Z,18.93
2023-04-06T05:39:12.585Z,18.88
2023-04-06T05:45:13.495Z,18.86
2023-04-06T05:49:39.761Z,18.83
2023-04-06T05:54:47.454Z,18.82
2023-04-06T06:00:34.718Z,18.80
2023-04-06T06:06:17.006Z,18.80
2023-04-06T06:11:59.482Z,18.82
2023-04-06T06:17:07.000Z,18.92
2023-04-06T06:22:14.202Z,19.00
2023-04-06T06:27:21.462Z,19.15
2023-04-06T06:32:28.582Z,19.39
2023-04-06T06:37:35.766Z,19.70
2023-04-06T06:42:42.966Z,19.93
2023-04-06T06:47:51.247Z,20.13
2023-04-06T06:52:57.285Z,20.35
2023-04-06T06:58:04.586Z,20.53
2023-04-06T07:03:11.769Z,20.73
2023-04-06T07:08:18.980Z,20.91
2023-04-06T07:13:26.190Z,21.10
2023-04-06T07:18:36.042Z,21.29
2023-04-06T07:23:40.540Z,21.43
2023-04-06T07:28:47.845Z,21.55
2023-04-06T07:33:55.019Z,21.66
2023-04-06T07:39:02.292Z,21.85
2023-04-06T07:44:09.579Z,21.95
2023-04-06T07:49:16.659Z,22.08
2023-04-06T07:54:23.882Z,22.15
2023-04-06T07:59:31.171Z,22.31
2023-04-06T08:04:38.369Z,22.31
2023-04-06T08:09:45.505Z,22.32
2023-04-06T08:14:52.735Z,22.36
2023-04-06T08:20:03.172Z,22.56
2023-04-06T08:25:10.359Z,22.71
2023-04-06T08:30:17.574Z,22.79
2023-04-06T08:35:24.773Z,22.91
2023-04-06T08:40:32.009Z,23.01
2023-04-06T08:45:39.250Z,23.06
2023-04-06T08:50:46.416Z,23.08
2023-04-06T08:55:53.701Z,23.03
2023-04-06T09:01:00.894Z,23.18
2023-04-06T09:06:08.072Z,23.19
2023-04-06T09:11:15.326Z,23.24
2023-04-06T09:16:22.628Z,23.39
2023-04-06T09:21:30.792Z,23.44
2023-04-06T09:26:38.127Z,23.58
2023-04-06T09:31:45.479Z,23.69
2023-04-06T09:36:52.696Z,23.75
2023-04-06T09:41:59.958Z,23.82
2023-04-06T09:47:07.338Z,23.94
2023-04-06T09:52:14.435Z,23.97
2023-04-06T09:57:21.618Z,24.03
2023-04-06T10:02:29.319Z,24.05
2023-04-06T10:07:43.221Z,23.99
2023-04-06T10:12:43.485Z,23.98
2023-04-06T10:17:50.803Z,24.00
2023-04-06T10:22:58.063Z,23.90
2023-04-06T10:28:05.216Z,23.83
2023-04-06T10:33:12.481Z,23.85
2023-04-06T10:38:19.674Z,23.89
2023-04-06T10:43:26.915Z,23.96
2023-04-06T10:48:34.086Z,23.94
2023-04-06T10:53:41.362Z,23.86
2023-04-06T10:58:48.627Z,23.94
2023-04-06T11:03:55.925Z,23.96
2023-04-06T11:09:03.068Z,23.87
2023-04-06T11:14:10.410Z,23.90
2023-04-06T11:19:17.797Z,23.93
2023-04-06T11:24:25.521Z,23.81
2023-04-06T11:30:16.405Z,23.67
2023-04-06T11:35:53.238Z,23.48
2023-04-06T11:40:45.662Z,23.26
2023-04-06T11:48:02.409Z,23.19
2023-04-06T11:51:26.345Z,23.08
2023-04-06T11:57:13.483Z,22.77
2023-04-06T12:02:20.781Z,22.68
2023-04-06T12:07:28.155Z,22.53
2023-04-06T12:12:35.359Z,21.74
2023-04-06T12:17:42.575Z,21.82
2023-04-06T12:22:49.809Z,21.69
2023-04-06T12:27:56.990Z,21.23
2023-04-06T12:33:04.276Z,21.74
2023-04-06T12:38:11.459Z,21.23
2023-04-06T12:43:19.086Z,20.92
2023-04-06T12:48:33.516Z,20.21
2023-04-06T12:53:47.337Z,20.20
2023-04-06T12:58:55.149Z,20.52
2023-04-06T13:04:13.431Z,20.91
2023-04-06T13:09:20.811Z,20.94
2023-04-06T13:14:28.205Z,20.79
2023-04-06T13:19:40.537Z,21.16
2023-04-06T13:24:48.024Z,21.07
2023-04-06T13:29:55.736Z,20.62
2023-04-06T13:35:12.166Z,20.72
2023-04-06T13:40:19.725Z,21.06
2023-04-06T13:45:27.288Z,20.65
2023-04-06T13:50:34.658Z,20.98
2023-04-06T13:55:42.244Z,20.85
2023-04-06T14:00:49.746Z,20.62
2023-04-06T14:05:58.628Z,20.91
2023-04-06T14:11:04.830Z,20.90
2023-04-06T14:16:17.000Z,20.96
2023-04-06T14:21:24.369Z,20.82
2023-04-06T14:26:31.578Z,20.99
2023-04-06T14:31:38.955Z,20.80
2023-04-06T14:36:46.366Z,20.76
2023-04-06T14:41:53.678Z,20.97
2023-04-06T14:47:00.963Z,21.02
2023-04-06T14:52:08.283Z,20.86
2023-04-06T14:57:15.951Z,20.85
2023-04-06T15:02:23.403Z,20.67
2023-04-06T15:07:34.084Z,20.78
2023-04-06T15:12:48.002Z,20.63
2023-04-06T15:17:55.624Z,20.26
2023-04-06T15:23:02.938Z,20.62
2023-04-06T15:28:10.748Z,20.32
2023-04-06T15:33:22.999Z,20.38
2023-04-06T15:38:30.497Z,20.37
2023-04-06T15:43:37.903Z,20.61
2023-04-06T15:48:45.354Z,20.66
2023-04-06T15:53:52.415Z,20.67
2023-04-06T15:58:59.699Z,20.78
2023-04-06T16:04:07.076Z,20.74
2023-04-06T16:09:14.208Z,20.85
2023-04-06T16:14:21.456Z,20.77
2023-04-06T16:19:28.699Z,20.73
2023-04-06T16:24:36.018Z,20.81
2023-04-06T16:29:43.506Z,20.84
2023-04-06T16:34:50.708Z,20.84
2023-04-06T16:39:57.950Z,20.84
2023-04-06T16:45:05.138Z,20.83
2023-04-06T16:50:12.299Z,20.80
2023-04-06T16:55:19.602Z,20.78
2023-04-06T17:00:27.022Z,20.77
2023-04-06T17:05:34.310Z,20.65
2023-04-06T17:10:46.990Z,20.60
2023-04-06T17:15:48.642Z,20.54
2023-04-06T17:20:55.801Z,20.84
2023-04-06T17:26:02.993Z,21.03
2023-04-06T17:31:10.434Z,21.20
2023-04-06T17:36:17.840Z,21.35
2023-04-06T17:41:24.549Z,21.45
2023-04-06T17:46:31.796Z,21.52
2023-04-06T17:51:38.969Z,21.57
2023-04-06T17:56:46.110Z,21.67
2023-04-06T18:01:53.344Z,21.76
2023-04-06T18:07:00.566Z,21.82
2023-04-06T18:12:07.747Z,21.87
2023-04-06T18:17:14.969Z,21.92
2023-04-06T18:22:22.124Z,21.95
2023-04-06T18:27:29.319Z,21.99
2023-04-06T18:32:36.544Z,22.04
2023-04-06T18:37:43.712Z,22.06
2023-04-06T18:42:50.876Z,22.08
2023-04-06T18:47:58.287Z,22.11
2023-04-06T18:53:05.441Z,22.24
2023-04-06T18:58:12.596Z,22.42
2023-04-06T19:03:21.781Z,22.47
2023-04-06T19:08:26.994Z,22.56
2023-04-06T19:13:34.160Z,22.70
2023-04-06T19:18:41.626Z,22.83
2023-04-06T19:23:48.946Z,22.92
2023-04-06T19:28:56.194Z,22.93
2023-04-06T19:34:03.433Z,22.98
2023-04-06T19:39:10.559Z,23.06
2023-04-06T19:44:17.784Z,23.18
2023-04-06T19:49:25.057Z,23.27
2023-04-06T19:54:32.208Z,23.36
2023-04-06T19:59:39.492Z,23.43
2023-04-06T20:04:46.858Z,23.45
2023-04-06T20:09:53.950Z,23.49
2023-04-06T20:15:01.184Z,23.50
2023-04-06T20:20:08.399Z,23.43
2023-04-06T20:25:15.608Z,23.40
2023-04-06T20:30:22.850Z,23.36
2023-04-06T20:35:30.079Z,23.46
2023-04-06T20:40:37.475Z,23.49
2023-04-06T20:45:44.739Z,23.50
2023-04-06T20:50:52.932Z,23.62
2023-04-06T20:55:59.263Z,23.65
2023-04-06T21:01:06.489Z,23.81
2023-04-06T21:06:13.988Z,23.85
2023-04-06T21:11:21.160Z,23.91
2023-04-06T21:16:28.399Z,23.96
2023-04-06T21:21:35.671Z,23.96
2023-04-06T21:26:42.913Z,23.95
2023-04-06T21:31:50.180Z,23.95
2023-04-06T21:36:57.449Z,24.02
2023-04-06T21:42:04.546Z,24.03
2023-04-06T21:47:11.764Z,24.06
2023-04-06T21:52:18.994Z,24.07
2023-04-06T21:57:26.205Z,24.10
2023-04-06T22:02:33.564Z,24.12
2023-04-06T22:07:40.700Z,24.16
2023-04-06T22:12:47.879Z,24.17
2023-04-06T22:17:55.226Z,24.21
2023-04-06T22:23:02.471Z,24.22
2023-04-06T22:28:09.615Z,24.23
2023-04-06T22:33:16.847Z,24.33
2023-04-06T22:38:24.099Z,24.35
2023-04-06T22:43:31.371Z,24.38
2023-04-06T22:48:38.552Z,24.45
2023-04-06T22:53:45.866Z,24.47
2023-04-06T22:58:53.033Z,24.48
2023-04-06T23:04:00.418Z,24.53
2023-04-06T23:09:07.515Z,24.52
2023-04-06T23:14:14.980Z,24.53
2023-04-06T23:19:21.867Z,24.56
2023-04-06T23:24:29.091Z,24.56
2023-04-06T23:29:36.262Z,24.53
2023-04-06T23:34:43.587Z,24.45
2023-04-06T23:39:50.844Z,24.54
2023-04-06T23:44:58.003Z,24.62
2023-04-06T23:50:05.204Z,24.67
2023-04-06T23:55:12.407Z,24.69
